sensor_id;sensor_type;location;lat;lon;timestamp;temperature;humidity
21090;DHT22;10703;51.020;6.128;2023-03-11T18:36:49;2.60;99.90
21090;DHT22;10703;51.020;6.128;2023-03-11T18:39:15;2.40;99.90
21090;DHT22;10703;51.020;6.128;2023-03-11T18:41:42;2.40;99.90
21090;DHT22;10703;51.020;6.128;2023-03-11T18:44:09;2.30;99.90
21090;DHT22;10703;51.020;6.128;2023-03-11T18:46:36;2.20;99.90
21090;DHT22;10703;51.020;6.128;2023-03-11T18:49:02;2.10;99.90
21090;DHT22;10703;51.020;6.128;2023-03-11T18:51:30;2.00;99.90
21090;DHT22;10703;51.020;6.128;2023-03-11T18:53:58;2.00;99.90
21090;DHT22;10703;51.020;6.128;2023-03-11T18:56:25;2.00;99.90
21090;DHT22;10703;51.020;6.128;2023-03-11T18:58:52;1.90;99.90
21090;DHT22;10703;51.020;6.128;2023-03-11T19:01:21;1.90;99.90
21090;DHT22;10703;51.020;6.128;2023-03-11T19:03:49;1.80;99.90
21090;DHT22;10703;51.020;6.128;2023-03-11T19:06:17;1.70;99.90
21090;DHT22;10703;51.020;6.128;2023-03-11T19:08:43;1.80;99.90
21090;DHT22;10703;51.020;6.128;2023-03-11T19:11:13;1.70;99.90
21090;DHT22;10703;51.020;6.128;2023-03-11T19:13:40;1.60;99.90
21090;DHT22;10703;51.020;6.128;2023-03-11T19:16:17;1.60;99.90
21090;DHT22;10703;51.020;6.128;2023-03-11T19:18:44;1.60;99.90
21090;DHT22;10703;51.020;6.128;2023-03-11T19:21:12;1.50;99.90
21090;DHT22;10703;51.020;6.128;2023-03-11T19:23:39;1.50;99.90
21090;DHT22;10703;51.020;6.128;2023-03-11T19:26:06;1.40;99.90
21090;DHT22;10703;51.020;6.128;2023-03-11T19:28:33;1.30;99.90
21090;DHT22;10703;51.020;6.128;2023-03-11T19:31:00;1.30;99.90
21090;DHT22;10703;51.020;6.128;2023-03-11T19:33:27;1.30;99.90
21090;DHT22;10703;51.020;6.128;2023-03-11T19:35:59;1.30;99.90
21090;DHT22;10703;51.020;6.128;2023-03-11T19:38:28;1.30;99.90
21090;DHT22;10703;51.020;6.128;2023-03-11T19:41:04;1.30;99.90
21090;DHT22;10703;51.020;6.128;2023-03-11T19:43:32;1.30;99.90
21090;DHT22;10703;51.020;6.128;2023-03-11T19:46:01;1.20;99.90
21090;DHT22;10703;51.020;6.128;2023-03-11T19:48:28;1.30;99.90
21090;DHT22;10703;51.020;6.128;2023-03-11T19:50:55;1.20;99.90
21090;DHT22;10703;51.020;6.128;2023-03-11T19:53:24;1.10;99.90
21090;DHT22;10703;51.020;6.128;2023-03-11T19:55:53;1.20;99.90
21090;DHT22;10703;51.020;6.128;2023-03-11T19:58:21;1.20;99.90
21090;DHT22;10703;51.020;6.128;2023-03-11T20:00:49;1.20;99.90
21090;DHT22;10703;51.020;6.128;2023-03-11T20:03:16;1.30;99.90
21090;DHT22;10703;51.020;6.128;2023-03-11T20:05:45;1.20;99.90
21090;DHT22;10703;51.020;6.128;2023-03-11T20:08:14;1.20;99.90
21090;DHT22;10703;51.020;6.128;2023-03-11T20:10:44;1.20;99.90
21090;DHT22;10703;51.020;6.128;2023-03-11T20:13:12;1.20;99.90
21090;DHT22;10703;51.020;6.128;2023-03-11T20:15:39;1.10;99.90
21090;DHT22;10703;51.020;6.128;2023-03-11T20:18:06;1.10;99.90
21090;DHT22;10703;51.020;6.128;2023-03-11T20:20:33;1.20;99.90
21090;DHT22;10703;51.020;6.128;2023-03-11T20:23:02;1.10;99.90
21090;DHT22;10703;51.020;6.128;2023-03-11T20:25:29;1.10;99.90
21090;DHT22;10703;51.020;6.128;2023-03-11T20:27:58;1.00;99.90
21090;DHT22;10703;51.020;6.128;2023-03-11T20:30:26;1.00;99.90
21090;DHT22;10703;51.020;6.128;2023-03-11T20:32:53;1.00;99.90
21090;DHT22;10703;51.020;6.128;2023-03-11T20:35:20;1.00;99.90
21090;DHT22;10703;51.020;6.128;2023-03-11T20:37:47;1.10;99.90
21090;DHT22;10703;51.020;6.128;2023-03-11T20:40:16;1.20;99.90
21090;DHT22;10703;51.020;6.128;2023-03-11T20:42:43;1.20;99.90
21090;DHT22;10703;51.020;6.128;2023-03-11T20:45:17;1.20;99.90
21090;DHT22;10703;51.020;6.128;2023-03-11T20:47:48;1.20;99.90
21090;DHT22;10703;51.020;6.128;2023-03-11T20:50:15;1.30;99.90
21090;DHT22;10703;51.020;6.128;2023-03-11T20:52:42;1.50;99.90
21090;DHT22;10703;51.020;6.128;2023-03-11T20:55:09;1.50;99.90
21090;DHT22;10703;51.020;6.128;2023-03-11T20:57:37;1.60;99.90
21090;DHT22;10703;51.020;6.128;2023-03-11T21:00:06;1.70;99.90
21090;DHT22;10703;51.020;6.128;2023-03-11T21:02:37;1.70;99.90
21090;DHT22;10703;51.020;6.128;2023-03-11T21:05:05;1.90;99.90
21090;DHT22;10703;51.020;6.128;2023-03-11T21:07:32;1.90;99.90
21090;DHT22;10703;51.020;6.128;2023-03-11T21:09:59;2.00;99.90
21090;DHT22;10703;51.020;6.128;2023-03-11T21:12:26;2.10;99.90
21090;DHT22;10703;51.020;6.128;2023-03-11T21:14:56;2.00;99.90
21090;DHT22;10703;51.020;6.128;2023-03-11T21:17:23;2.10;99.90
21090;DHT22;10703;51.020;6.128;2023-03-11T21:19:50;2.10;99.90
21090;DHT22;10703;51.020;6.128;2023-03-11T21:22:16;2.10;99.90
21090;DHT22;10703;51.020;6.128;2023-03-11T21:24:43;2.00;99.90
21090;DHT22;10703;51.020;6.128;2023-03-11T21:27:10;1.90;99.90
21090;DHT22;10703;51.020;6.128;2023-03-11T21:29:37;1.80;99.90
21090;DHT22;10703;51.020;6.128;2023-03-11T21:32:04;1.70;99.90
21090;DHT22;10703;51.020;6.128;2023-03-11T21:34:31;1.70;99.90
21090;DHT22;10703;51.020;6.128;2023-03-11T21:36:58;1.60;99.90
21090;DHT22;10703;51.020;6.128;2023-03-11T21:39:24;1.50;99.90
21090;DHT22;10703;51.020;6.128;2023-03-11T21:41:51;1.60;99.90
21090;DHT22;10703;51.020;6.128;2023-03-11T21:44:21;1.70;99.90
21090;DHT22;10703;51.020;6.128;2023-03-11T21:46:47;1.70;99.90
21090;DHT22;10703;51.020;6.128;2023-03-11T21:49:15;1.70;99.90
21090;DHT22;10703;51.020;6.128;2023-03-11T21:51:41;1.80;99.90
21090;DHT22;10703;51.020;6.128;2023-03-11T21:54:08;1.70;99.90
21090;DHT22;10703;51.020;6.128;2023-03-11T21:56:36;1.80;99.90
21090;DHT22;10703;51.020;6.128;2023-03-11T21:59:03;1.80;99.90
21090;DHT22;10703;51.020;6.128;2023-03-11T22:01:30;1.70;99.90
21090;DHT22;10703;51.020;6.128;2023-03-11T22:03:57;1.80;99.90
21090;DHT22;10703;51.020;6.128;2023-03-11T22:06:23;1.80;99.90
21090;DHT22;10703;51.020;6.128;2023-03-11T22:08:50;1.80;99.90
21090;DHT22;10703;51.020;6.128;2023-03-11T22:11:17;1.80;99.90
21090;DHT22;10703;51.020;6.128;2023-03-11T22:13:47;1.80;99.90
21090;DHT22;10703;51.020;6.128;2023-03-11T22:16:14;1.80;99.90
21090;DHT22;10703;51.020;6.128;2023-03-11T22:18:41;1.80;99.90
21090;DHT22;10703;51.020;6.128;2023-03-11T22:21:08;1.80;99.90
21090;DHT22;10703;51.020;6.128;2023-03-11T22:23:36;1.70;99.90
21090;DHT22;10703;51.020;6.128;2023-03-11T22:26:03;1.60;99.90
21090;DHT22;10703;51.020;6.128;2023-03-11T22:28:30;1.60;99.90
21090;DHT22;10703;51.020;6.128;2023-03-11T22:30:57;1.70;99.90
21090;DHT22;10703;51.020;6.128;2023-03-11T22:33:23;1.80;99.90
21090;DHT22;10703;51.020;6.128;2023-03-11T22:35:52;1.80;99.90
21090;DHT22;10703;51.020;6.128;2023-03-11T22:38:20;1.90;99.90
21090;DHT22;10703;51.020;6.128;2023-03-11T22:40:46;2.00;99.90
21090;DHT22;10703;51.020;6.128;2023-03-11T22:43:13;2.00;99.90
21090;DHT22;10703;51.020;6.128;2023-03-11T22:45:40;2.00;99.90
21090;DHT22;10703;51.020;6.128;2023-03-11T22:48:07;2.10;99.90
21090;DHT22;10703;51.020;6.128;2023-03-11T22:50:33;2.00;99.90
21090;DHT22;10703;51.020;6.128;2023-03-11T22:53:00;2.10;99.90
21090;DHT22;10703;51.020;6.128;2023-03-11T22:55:27;2.10;99.90
21090;DHT22;10703;51.020;6.128;2023-03-11T22:57:53;2.20;99.90
21090;DHT22;10703;51.020;6.128;2023-03-11T23:00:21;2.20;99.90
21090;DHT22;10703;51.020;6.128;2023-03-11T23:02:53;2.20;99.90
21090;DHT22;10703;51.020;6.128;2023-03-11T23:05:21;2.30;99.90
21090;DHT22;10703;51.020;6.128;2023-03-11T23:07:48;2.30;99.90
21090;DHT22;10703;51.020;6.128;2023-03-11T23:10:15;2.30;99.90
21090;DHT22;10703;51.020;6.128;2023-03-11T23:12:45;2.20;99.90
21090;DHT22;10703;51.020;6.128;2023-03-11T23:15:15;2.20;99.90
21090;DHT22;10703;51.020;6.128;2023-03-11T23:17:42;2.10;99.90
21090;DHT22;10703;51.020;6.128;2023-03-11T23:20:12;2.20;99.90
21090;DHT22;10703;51.020;6.128;2023-03-11T23:22:40;2.30;99.90
21090;DHT22;10703;51.020;6.128;2023-03-11T23:25:10;2.30;99.90
21090;DHT22;10703;51.020;6.128;2023-03-11T23:27:38;2.20;99.90
21090;DHT22;10703;51.020;6.128;2023-03-11T23:30:05;2.20;99.90
21090;DHT22;10703;51.020;6.128;2023-03-11T23:32:32;2.30;99.90
21090;DHT22;10703;51.020;6.128;2023-03-11T23:34:58;2.30;99.90
21090;DHT22;10703;51.020;6.128;2023-03-11T23:37:25;2.30;99.90
21090;DHT22;10703;51.020;6.128;2023-03-11T23:39:52;2.40;99.90
21090;DHT22;10703;51.020;6.128;2023-03-11T23:42:18;2.50;99.90
21090;DHT22;10703;51.020;6.128;2023-03-11T23:44:52;2.40;99.90
21090;DHT22;10703;51.020;6.128;2023-03-11T23:47:18;2.40;99.90
21090;DHT22;10703;51.020;6.128;2023-03-11T23:49:45;2.40;99.90
21090;DHT22;10703;51.020;6.128;2023-03-11T23:52:12;2.40;99.90
21090;DHT22;10703;51.020;6.128;2023-03-11T23:54:38;2.40;99.90
21090;DHT22;10703;51.020;6.128;2023-03-11T23:57:05;2.40;99.90
21090;DHT22;10703;51.020;6.128;2023-03-11T23:59:32;2.20;99.90
